sensor_id;sensor_type;location;lat;lon;timestamp;P1;durP1;ratioP1;P2;durP2;ratioP2
31786;SDS011;18356;52.380;9.820;2023-01-08T00:00:47;4.70;;;2.50;;
31786;SDS011;18356;52.380;9.820;2023-01-08T00:03:14;4.83;;;2.50;;
31786;SDS011;18356;52.380;9.820;2023-01-08T00:05:40;4.67;;;2.63;;
31786;SDS011;18356;52.380;9.820;2023-01-08T00:08:06;4.27;;;2.60;;
31786;SDS011;18356;52.380;9.820;2023-01-08T00:10:35;4.43;;;2.80;;
31786;SDS011;18356;52.380;9.820;2023-01-08T00:13:01;6.23;;;3.47;;
31786;SDS011;18356;52.380;9.820;2023-01-08T00:15:27;5.80;;;3.10;;
31786;SDS011;18356;52.380;9.820;2023-01-08T00:17:54;5.07;;;2.80;;
31786;SDS011;18356;52.380;9.820;2023-01-08T00:20:20;4.97;;;2.73;;
31786;SDS011;18356;52.380;9.820;2023-01-08T00:22:52;5.30;;;3.17;;
31786;SDS011;18356;52.380;9.820;2023-01-08T00:25:18;5.70;;;2.70;;
31786;SDS011;18356;52.380;9.820;2023-01-08T00:27:44;4.43;;;2.90;;
31786;SDS011;18356;52.380;9.820;2023-01-08T00:30:11;4.53;;;2.97;;
31786;SDS011;18356;52.380;9.820;2023-01-08T00:32:37;4.43;;;2.83;;
31786;SDS011;18356;52.380;9.820;2023-01-08T00:35:03;5.10;;;2.90;;
31786;SDS011;18356;52.380;9.820;2023-01-08T00:37:29;5.97;;;3.00;;
31786;SDS011;18356;52.380;9.820;2023-01-08T00:39:55;4.87;;;3.20;;
31786;SDS011;18356;52.380;9.820;2023-01-08T00:42:21;6.37;;;3.27;;
31786;SDS011;18356;52.380;9.820;2023-01-08T00:44:47;5.47;;;2.87;;
31786;SDS011;18356;52.380;9.820;2023-01-08T00:47:13;5.77;;;2.80;;
31786;SDS011;18356;52.380;9.820;2023-01-08T00:49:39;4.67;;;2.87;;
31786;SDS011;18356;52.380;9.820;2023-01-08T00:52:05;5.57;;;2.93;;
31786;SDS011;18356;52.380;9.820;2023-01-08T00:54:32;3.83;;;2.63;;
31786;SDS011;18356;52.380;9.820;2023-01-08T00:56:58;5.13;;;2.90;;
31786;SDS011;18356;52.380;9.820;2023-01-08T00:59:24;6.90;;;3.00;;
31786;SDS011;18356;52.380;9.820;2023-01-08T01:01:50;6.13;;;3.07;;
31786;SDS011;18356;52.380;9.820;2023-01-08T01:04:18;5.10;;;3.20;;
31786;SDS011;18356;52.380;9.820;2023-01-08T01:06:44;5.33;;;2.77;;
31786;SDS011;18356;52.380;9.820;2023-01-08T01:09:10;5.23;;;2.70;;
31786;SDS011;18356;52.380;9.820;2023-01-08T01:11:36;6.30;;;3.00;;
31786;SDS011;18356;52.380;9.820;2023-01-08T01:14:02;5.83;;;3.10;;
31786;SDS011;18356;52.380;9.820;2023-01-08T01:16:28;6.83;;;3.00;;
31786;SDS011;18356;52.380;9.820;2023-01-08T01:18:54;6.77;;;3.20;;
31786;SDS011;18356;52.380;9.820;2023-01-08T01:23:47;7.17;;;3.73;;
31786;SDS011;18356;52.380;9.820;2023-01-08T01:26:16;6.43;;;3.53;;
31786;SDS011;18356;52.380;9.820;2023-01-08T01:28:45;6.13;;;3.43;;
31786;SDS011;18356;52.380;9.820;2023-01-08T01:31:12;6.13;;;3.60;;
31786;SDS011;18356;52.380;9.820;2023-01-08T01:33:39;8.10;;;3.50;;
31786;SDS011;18356;52.380;9.820;2023-01-08T01:36:05;5.00;;;3.20;;
31786;SDS011;18356;52.380;9.820;2023-01-08T01:38:31;5.50;;;3.13;;
31786;SDS011;18356;52.380;9.820;2023-01-08T01:40:57;5.00;;;3.03;;
31786;SDS011;18356;52.380;9.820;2023-01-08T01:43:40;5.13;;;3.30;;
31786;SDS011;18356;52.380;9.820;2023-01-08T01:48:41;8.53;;;3.47;;
31786;SDS011;18356;52.380;9.820;2023-01-08T01:51:08;9.07;;;3.67;;
31786;SDS011;18356;52.380;9.820;2023-01-08T01:53:34;6.20;;;3.60;;
31786;SDS011;18356;52.380;9.820;2023-01-08T01:56:02;7.17;;;3.43;;
31786;SDS011;18356;52.380;9.820;2023-01-08T01:58:29;4.73;;;3.10;;
31786;SDS011;18356;52.380;9.820;2023-01-08T02:00:56;7.57;;;3.63;;
31786;SDS011;18356;52.380;9.820;2023-01-08T02:03:24;4.73;;;3.10;;
31786;SDS011;18356;52.380;9.820;2023-01-08T02:11:11;5.23;;;3.37;;
31786;SDS011;18356;52.380;9.820;2023-01-08T02:13:40;5.43;;;3.00;;
31786;SDS011;18356;52.380;9.820;2023-01-08T02:21:09;11.90;;;3.17;;
31786;SDS011;18356;52.380;9.820;2023-01-08T02:23:41;6.07;;;3.30;;
31786;SDS011;18356;52.380;9.820;2023-01-08T02:28:40;5.30;;;3.20;;
31786;SDS011;18356;52.380;9.820;2023-01-08T02:31:07;6.07;;;3.50;;
31786;SDS011;18356;52.380;9.820;2023-01-08T02:33:33;5.20;;;3.40;;
31786;SDS011;18356;52.380;9.820;2023-01-08T02:38:49;5.57;;;3.30;;
31786;SDS011;18356;52.380;9.820;2023-01-08T02:41:19;6.40;;;4.60;;
31786;SDS011;18356;52.380;9.820;2023-01-08T02:43:49;8.23;;;3.60;;
31786;SDS011;18356;52.380;9.820;2023-01-08T02:46:17;6.07;;;3.27;;
31786;SDS011;18356;52.380;9.820;2023-01-08T02:48:45;5.53;;;3.73;;
31786;SDS011;18356;52.380;9.820;2023-01-08T02:51:12;5.50;;;3.60;;
31786;SDS011;18356;52.380;9.820;2023-01-08T02:53:40;5.17;;;3.27;;
31786;SDS011;18356;52.380;9.820;2023-01-08T02:56:11;7.03;;;3.43;;
31786;SDS011;18356;52.380;9.820;2023-01-08T02:58:39;5.40;;;3.33;;
31786;SDS011;18356;52.380;9.820;2023-01-08T03:01:07;4.90;;;3.40;;
31786;SDS011;18356;52.380;9.820;2023-01-08T03:03:34;4.73;;;3.30;;
31786;SDS011;18356;52.380;9.820;2023-01-08T03:06:12;6.33;;;3.20;;
31786;SDS011;18356;52.380;9.820;2023-01-08T03:08:39;6.03;;;3.00;;
31786;SDS011;18356;52.380;9.820;2023-01-08T03:11:06;5.20;;;3.47;;
31786;SDS011;18356;52.380;9.820;2023-01-08T03:15:59;5.40;;;3.07;;
31786;SDS011;18356;52.380;9.820;2023-01-08T03:18:33;5.20;;;3.20;;
31786;SDS011;18356;52.380;9.820;2023-01-08T03:21:01;5.60;;;3.17;;
31786;SDS011;18356;52.380;9.820;2023-01-08T03:23:30;5.27;;;3.97;;
31786;SDS011;18356;52.380;9.820;2023-01-08T03:25:57;6.97;;;3.27;;
31786;SDS011;18356;52.380;9.820;2023-01-08T03:28:26;5.30;;;3.23;;
31786;SDS011;18356;52.380;9.820;2023-01-08T03:30:54;6.00;;;3.27;;
31786;SDS011;18356;52.380;9.820;2023-01-08T03:33:21;6.03;;;3.10;;
31786;SDS011;18356;52.380;9.820;2023-01-08T03:35:49;5.50;;;3.30;;
31786;SDS011;18356;52.380;9.820;2023-01-08T03:38:17;4.47;;;3.00;;
31786;SDS011;18356;52.380;9.820;2023-01-08T03:40:46;6.47;;;3.43;;
31786;SDS011;18356;52.380;9.820;2023-01-08T03:43:13;6.20;;;3.40;;
31786;SDS011;18356;52.380;9.820;2023-01-08T03:45:40;5.13;;;3.10;;
31786;SDS011;18356;52.380;9.820;2023-01-08T03:48:09;6.30;;;2.93;;
31786;SDS011;18356;52.380;9.820;2023-01-08T03:50:35;5.07;;;3.50;;
31786;SDS011;18356;52.380;9.820;2023-01-08T03:53:01;5.40;;;3.50;;
31786;SDS011;18356;52.380;9.820;2023-01-08T03:55:27;4.97;;;3.20;;
31786;SDS011;18356;52.380;9.820;2023-01-08T03:57:53;5.60;;;3.70;;
31786;SDS011;18356;52.380;9.820;2023-01-08T04:00:19;6.13;;;3.30;;
31786;SDS011;18356;52.380;9.820;2023-01-08T04:02:45;5.70;;;3.13;;
31786;SDS011;18356;52.380;9.820;2023-01-08T04:05:11;5.93;;;3.50;;
31786;SDS011;18356;52.380;9.820;2023-01-08T04:07:37;5.67;;;3.20;;
31786;SDS011;18356;52.380;9.820;2023-01-08T04:10:03;4.77;;;3.00;;
31786;SDS011;18356;52.380;9.820;2023-01-08T04:12:30;5.50;;;3.40;;
31786;SDS011;18356;52.380;9.820;2023-01-08T04:14:56;4.77;;;3.20;;
31786;SDS011;18356;52.380;9.820;2023-01-08T04:17:22;5.73;;;3.27;;
31786;SDS011;18356;52.380;9.820;2023-01-08T04:19:47;5.83;;;3.40;;
31786;SDS011;18356;52.380;9.820;2023-01-08T04:22:14;4.57;;;3.40;;
31786;SDS011;18356;52.380;9.820;2023-01-08T04:24:40;6.70;;;3.03;;
31786;SDS011;18356;52.380;9.820;2023-01-08T04:27:05;6.00;;;3.40;;
31786;SDS011;18356;52.380;9.820;2023-01-08T04:29:32;4.60;;;3.10;;
31786;SDS011;18356;52.380;9.820;2023-01-08T04:31:58;5.43;;;2.90;;
31786;SDS011;18356;52.380;9.820;2023-01-08T04:34:24;4.97;;;3.20;;
31786;SDS011;18356;52.380;9.820;2023-01-08T04:36:50;4.77;;;3.10;;
31786;SDS011;18356;52.380;9.820;2023-01-08T04:39:16;6.40;;;3.40;;
31786;SDS011;18356;52.380;9.820;2023-01-08T04:41:42;4.43;;;2.83;;
31786;SDS011;18356;52.380;9.820;2023-01-08T04:44:08;4.40;;;3.00;;
31786;SDS011;18356;52.380;9.820;2023-01-08T04:46:34;4.23;;;2.97;;
31786;SDS011;18356;52.380;9.820;2023-01-08T04:49:00;5.23;;;2.80;;
31786;SDS011;18356;52.380;9.820;2023-01-08T04:51:26;5.13;;;3.27;;
31786;SDS011;18356;52.380;9.820;2023-01-08T04:53:52;4.50;;;2.97;;
31786;SDS011;18356;52.380;9.820;2023-01-08T04:56:18;4.20;;;2.70;;
31786;SDS011;18356;52.380;9.820;2023-01-08T04:58:44;4.27;;;2.53;;
31786;SDS011;18356;52.380;9.820;2023-01-08T05:01:20;5.23;;;3.27;;
31786;SDS011;18356;52.380;9.820;2023-01-08T05:03:47;5.47;;;2.97;;
31786;SDS011;18356;52.380;9.820;2023-01-08T05:06:13;5.63;;;3.13;;
31786;SDS011;18356;52.380;9.820;2023-01-08T05:08:39;5.27;;;2.93;;
31786;SDS011;18356;52.380;9.820;2023-01-08T05:11:05;5.97;;;3.30;;
31786;SDS011;18356;52.380;9.820;2023-01-08T05:13:31;3.90;;;2.67;;
31786;SDS011;18356;52.380;9.820;2023-01-08T05:15:58;6.57;;;3.10;;
31786;SDS011;18356;52.380;9.820;2023-01-08T05:18:24;6.33;;;2.87;;
31786;SDS011;18356;52.380;9.820;2023-01-08T05:20:50;3.83;;;2.60;;
31786;SDS011;18356;52.380;9.820;2023-01-08T05:23:16;5.83;;;3.00;;
31786;SDS011;18356;52.380;9.820;2023-01-08T05:25:42;6.23;;;3.13;;
31786;SDS011;18356;52.380;9.820;2023-01-08T05:28:08;6.23;;;3.23;;
31786;SDS011;18356;52.380;9.820;2023-01-08T05:30:35;4.20;;;2.97;;
31786;SDS011;18356;52.380;9.820;2023-01-08T05:33:01;5.87;;;3.30;;
31786;SDS011;18356;52.380;9.820;2023-01-08T05:35:27;5.67;;;3.60;;
31786;SDS011;18356;52.380;9.820;2023-01-08T05:37:53;7.70;;;3.90;;
31786;SDS011;18356;52.380;9.820;2023-01-08T05:40:19;5.90;;;3.70;;
31786;SDS011;18356;52.380;9.820;2023-01-08T05:42:45;6.17;;;3.90;;
31786;SDS011;18356;52.380;9.820;2023-01-08T05:45:11;6.67;;;4.10;;
31786;SDS011;18356;52.380;9.820;2023-01-08T05:47:37;5.10;;;3.60;;
31786;SDS011;18356;52.380;9.820;2023-01-08T05:50:03;7.40;;;3.87;;
31786;SDS011;18356;52.380;9.820;2023-01-08T05:52:29;8.37;;;4.23;;
31786;SDS011;18356;52.380;9.820;2023-01-08T05:54:55;7.07;;;3.53;;
31786;SDS011;18356;52.380;9.820;2023-01-08T05:57:22;6.77;;;4.10;;
31786;SDS011;18356;52.380;9.820;2023-01-08T05:59:48;7.33;;;3.83;;
31786;SDS011;18356;52.380;9.820;2023-01-08T06:02:14;6.77;;;3.87;;
31786;SDS011;18356;52.380;9.820;2023-01-08T06:04:40;8.03;;;3.80;;
31786;SDS011;18356;52.380;9.820;2023-01-08T06:07:06;6.53;;;3.50;;
31786;SDS011;18356;52.380;9.820;2023-01-08T06:09:32;6.13;;;3.93;;
31786;SDS011;18356;52.380;9.820;2023-01-08T06:11:58;8.13;;;3.90;;
31786;SDS011;18356;52.380;9.820;2023-01-08T06:14:24;8.13;;;3.97;;
31786;SDS011;18356;52.380;9.820;2023-01-08T06:16:50;6.17;;;4.17;;
31786;SDS011;18356;52.380;9.820;2023-01-08T06:19:16;7.60;;;4.37;;
31786;SDS011;18356;52.380;9.820;2023-01-08T06:21:43;8.07;;;4.37;;
31786;SDS011;18356;52.380;9.820;2023-01-08T06:24:09;8.73;;;4.40;;
31786;SDS011;18356;52.380;9.820;2023-01-08T06:26:35;6.43;;;3.90;;
31786;SDS011;18356;52.380;9.820;2023-01-08T06:29:01;6.70;;;4.17;;
31786;SDS011;18356;52.380;9.820;2023-01-08T06:31:27;6.47;;;3.70;;
31786;SDS011;18356;52.380;9.820;2023-01-08T06:33:53;7.37;;;4.20;;
31786;SDS011;18356;52.380;9.820;2023-01-08T06:36:19;8.60;;;4.17;;
31786;SDS011;18356;52.380;9.820;2023-01-08T06:38:45;6.87;;;4.20;;
31786;SDS011;18356;52.380;9.820;2023-01-08T06:41:11;7.30;;;4.30;;
31786;SDS011;18356;52.380;9.820;2023-01-08T06:43:37;6.07;;;4.37;;
31786;SDS011;18356;52.380;9.820;2023-01-08T06:46:04;7.83;;;4.80;;
31786;SDS011;18356;52.380;9.820;2023-01-08T06:48:30;6.83;;;4.70;;
31786;SDS011;18356;52.380;9.820;2023-01-08T06:50:58;6.80;;;4.40;;
31786;SDS011;18356;52.380;9.820;2023-01-08T06:53:24;7.90;;;4.73;;
31786;SDS011;18356;52.380;9.820;2023-01-08T06:55:50;6.87;;;5.10;;
31786;SDS011;18356;52.380;9.820;2023-01-08T06:58:21;8.20;;;4.87;;
31786;SDS011;18356;52.380;9.820;2023-01-08T07:00:47;7.47;;;5.20;;
31786;SDS011;18356;52.380;9.820;2023-01-08T07:03:13;9.87;;;5.50;;
31786;SDS011;18356;52.380;9.820;2023-01-08T07:05:39;8.57;;;5.57;;
31786;SDS011;18356;52.380;9.820;2023-01-08T07:08:05;8.13;;;5.30;;
31786;SDS011;18356;52.380;9.820;2023-01-08T07:10:33;7.90;;;5.90;;
31786;SDS011;18356;52.380;9.820;2023-01-08T07:12:59;8.37;;;5.53;;
31786;SDS011;18356;52.380;9.820;2023-01-08T07:15:25;8.70;;;6.23;;
31786;SDS011;18356;52.380;9.820;2023-01-08T07:17:51;11.13;;;6.03;;
31786;SDS011;18356;52.380;9.820;2023-01-08T07:20:17;8.60;;;5.90;;
31786;SDS011;18356;52.380;9.820;2023-01-08T07:22:43;10.83;;;6.20;;
31786;SDS011;18356;52.380;9.820;2023-01-08T07:25:09;9.87;;;6.40;;
31786;SDS011;18356;52.380;9.820;2023-01-08T07:27:35;8.10;;;6.30;;
31786;SDS011;18356;52.380;9.820;2023-01-08T07:30:00;10.27;;;7.10;;
31786;SDS011;18356;52.380;9.820;2023-01-08T07:32:26;9.93;;;6.77;;
31786;SDS011;18356;52.380;9.820;2023-01-08T07:34:52;8.23;;;6.47;;
31786;SDS011;18356;52.380;9.820;2023-01-08T07:37:22;8.90;;;6.77;;
31786;SDS011;18356;52.380;9.820;2023-01-08T07:39:48;10.67;;;7.03;;
31786;SDS011;18356;52.380;9.820;2023-01-08T07:42:16;12.30;;;7.70;;
31786;SDS011;18356;52.380;9.820;2023-01-08T07:44:42;12.67;;;7.40;;
31786;SDS011;18356;52.380;9.820;2023-01-08T07:47:08;13.67;;;8.00;;
31786;SDS011;18356;52.380;9.820;2023-01-08T07:49:34;9.63;;;7.17;;
31786;SDS011;18356;52.380;9.820;2023-01-08T07:52:00;12.23;;;8.10;;
31786;SDS011;18356;52.380;9.820;2023-01-08T07:54:26;10.70;;;6.83;;
31786;SDS011;18356;52.380;9.820;2023-01-08T07:56:53;9.40;;;6.57;;
31786;SDS011;18356;52.380;9.820;2023-01-08T07:59:19;9.63;;;6.63;;
31786;SDS011;18356;52.380;9.820;2023-01-08T08:01:45;10.30;;;7.10;;
31786;SDS011;18356;52.380;9.820;2023-01-08T08:04:13;9.00;;;6.37;;
31786;SDS011;18356;52.380;9.820;2023-01-08T08:06:39;7.93;;;5.67;;
31786;SDS011;18356;52.380;9.820;2023-01-08T08:09:05;10.53;;;6.37;;
31786;SDS011;18356;52.380;9.820;2023-01-08T08:11:31;9.43;;;6.93;;
31786;SDS011;18356;52.380;9.820;2023-01-08T08:13:57;10.60;;;5.77;;
31786;SDS011;18356;52.380;9.820;2023-01-08T08:16:23;9.37;;;5.77;;
31786;SDS011;18356;52.380;9.820;2023-01-08T08:18:49;7.67;;;5.53;;
31786;SDS011;18356;52.380;9.820;2023-01-08T08:21:15;8.73;;;6.27;;
31786;SDS011;18356;52.380;9.820;2023-01-08T08:23:41;8.60;;;5.90;;
31786;SDS011;18356;52.380;9.820;2023-01-08T08:26:07;7.10;;;5.07;;
31786;SDS011;18356;52.380;9.820;2023-01-08T08:28:33;7.33;;;5.10;;
31786;SDS011;18356;52.380;9.820;2023-01-08T08:30:59;6.93;;;5.10;;
31786;SDS011;18356;52.380;9.820;2023-01-08T08:33:25;6.90;;;5.10;;
31786;SDS011;18356;52.380;9.820;2023-01-08T08:35:51;5.80;;;4.70;;
31786;SDS011;18356;52.380;9.820;2023-01-08T08:38:17;8.47;;;5.80;;
31786;SDS011;18356;52.380;9.820;2023-01-08T08:40:43;9.87;;;6.43;;
31786;SDS011;18356;52.380;9.820;2023-01-08T08:43:09;9.83;;;6.27;;
31786;SDS011;18356;52.380;9.820;2023-01-08T08:45:35;7.07;;;5.10;;
31786;SDS011;18356;52.380;9.820;2023-01-08T08:48:04;8.30;;;4.77;;
31786;SDS011;18356;52.380;9.820;2023-01-08T08:50:30;7.10;;;4.47;;
31786;SDS011;18356;52.380;9.820;2023-01-08T08:52:59;7.53;;;5.07;;
31786;SDS011;18356;52.380;9.820;2023-01-08T08:55:26;6.53;;;4.07;;
31786;SDS011;18356;52.380;9.820;2023-01-08T08:57:52;6.20;;;4.50;;
31786;SDS011;18356;52.380;9.820;2023-01-08T09:00:18;6.07;;;4.37;;
31786;SDS011;18356;52.380;9.820;2023-01-08T09:02:44;7.50;;;4.20;;
31786;SDS011;18356;52.380;9.820;2023-01-08T09:05:10;6.60;;;3.67;;
31786;SDS011;18356;52.380;9.820;2023-01-08T09:07:36;6.63;;;4.37;;
31786;SDS011;18356;52.380;9.820;2023-01-08T09:10:03;5.53;;;3.67;;
31786;SDS011;18356;52.380;9.820;2023-01-08T09:12:29;5.83;;;4.20;;
31786;SDS011;18356;52.380;9.820;2023-01-08T09:14:55;5.40;;;3.77;;
31786;SDS011;18356;52.380;9.820;2023-01-08T09:17:21;6.57;;;4.07;;
31786;SDS011;18356;52.380;9.820;2023-01-08T09:19:49;7.07;;;4.37;;
31786;SDS011;18356;52.380;9.820;2023-01-08T09:22:15;6.53;;;4.17;;
31786;SDS011;18356;52.380;9.820;2023-01-08T09:24:41;6.50;;;4.07;;
31786;SDS011;18356;52.380;9.820;2023-01-08T09:27:07;6.73;;;4.10;;
31786;SDS011;18356;52.380;9.820;2023-01-08T09:29:33;5.60;;;3.50;;
31786;SDS011;18356;52.380;9.820;2023-01-08T09:31:59;4.63;;;3.30;;
31786;SDS011;18356;52.380;9.820;2023-01-08T09:34:26;9.00;;;5.00;;
31786;SDS011;18356;52.380;9.820;2023-01-08T09:36:52;5.33;;;3.67;;
31786;SDS011;18356;52.380;9.820;2023-01-08T09:39:18;5.03;;;3.77;;
31786;SDS011;18356;52.380;9.820;2023-01-08T09:41:45;6.07;;;3.50;;
31786;SDS011;18356;52.380;9.820;2023-01-08T09:44:16;5.30;;;3.40;;
31786;SDS011;18356;52.380;9.820;2023-01-08T09:46:43;5.97;;;3.60;;
31786;SDS011;18356;52.380;9.820;2023-01-08T09:49:11;5.13;;;3.30;;
31786;SDS011;18356;52.380;9.820;2023-01-08T09:51:39;5.40;;;3.00;;
31786;SDS011;18356;52.380;9.820;2023-01-08T09:54:05;6.30;;;3.37;;
31786;SDS011;18356;52.380;9.820;2023-01-08T09:56:32;10.87;;;9.83;;
31786;SDS011;18356;52.380;9.820;2023-01-08T09:59:00;4.20;;;2.70;;
31786;SDS011;18356;52.380;9.820;2023-01-08T10:01:27;5.00;;;2.93;;
31786;SDS011;18356;52.380;9.820;2023-01-08T10:04:04;3.93;;;2.53;;
31786;SDS011;18356;52.380;9.820;2023-01-08T10:06:31;3.63;;;2.47;;
31786;SDS011;18356;52.380;9.820;2023-01-08T10:08:57;3.60;;;2.40;;
31786;SDS011;18356;52.380;9.820;2023-01-08T10:11:24;3.37;;;2.13;;
31786;SDS011;18356;52.380;9.820;2023-01-08T10:13:52;5.57;;;2.50;;
31786;SDS011;18356;52.380;9.820;2023-01-08T10:16:39;2.93;;;2.07;;
31786;SDS011;18356;52.380;9.820;2023-01-08T10:19:05;4.83;;;2.40;;
31786;SDS011;18356;52.380;9.820;2023-01-08T10:21:31;3.07;;;1.80;;
31786;SDS011;18356;52.380;9.820;2023-01-08T10:24:01;3.30;;;2.50;;
31786;SDS011;18356;52.380;9.820;2023-01-08T10:26:36;3.30;;;1.90;;
31786;SDS011;18356;52.380;9.820;2023-01-08T10:29:18;3.53;;;2.07;;
31786;SDS011;18356;52.380;9.820;2023-01-08T10:31:49;5.27;;;2.43;;
31786;SDS011;18356;52.380;9.820;2023-01-08T10:34:26;4.80;;;1.90;;
31786;SDS011;18356;52.380;9.820;2023-01-08T10:36:52;2.63;;;1.67;;
31786;SDS011;18356;52.380;9.820;2023-01-08T10:39:26;2.63;;;1.73;;
31786;SDS011;18356;52.380;9.820;2023-01-08T10:41:55;2.77;;;1.80;;
31786;SDS011;18356;52.380;9.820;2023-01-08T10:44:22;3.20;;;1.80;;
31786;SDS011;18356;52.380;9.820;2023-01-08T10:46:49;3.10;;;2.07;;
31786;SDS011;18356;52.380;9.820;2023-01-08T10:49:28;4.13;;;1.90;;
31786;SDS011;18356;52.380;9.820;2023-01-08T10:51:55;3.40;;;1.90;;
31786;SDS011;18356;52.380;9.820;2023-01-08T10:54:25;3.73;;;1.73;;
31786;SDS011;18356;52.380;9.820;2023-01-08T10:56:52;3.77;;;2.10;;
31786;SDS011;18356;52.380;9.820;2023-01-08T10:59:21;4.93;;;1.93;;
31786;SDS011;18356;52.380;9.820;2023-01-08T11:01:49;2.83;;;1.90;;
31786;SDS011;18356;52.380;9.820;2023-01-08T11:06:50;4.40;;;2.00;;
31786;SDS011;18356;52.380;9.820;2023-01-08T11:09:26;2.40;;;1.50;;
31786;SDS011;18356;52.380;9.820;2023-01-08T11:11:53;3.07;;;1.83;;
31786;SDS011;18356;52.380;9.820;2023-01-08T11:14:24;2.37;;;1.33;;
31786;SDS011;18356;52.380;9.820;2023-01-08T11:16:50;2.63;;;1.50;;
31786;SDS011;18356;52.380;9.820;2023-01-08T11:21:59;2.33;;;1.20;;
31786;SDS011;18356;52.380;9.820;2023-01-08T11:24:32;2.17;;;1.30;;
31786;SDS011;18356;52.380;9.820;2023-01-08T11:31:54;2.27;;;1.23;;
31786;SDS011;18356;52.380;9.820;2023-01-08T11:36:58;9.23;;;1.80;;
31786;SDS011;18356;52.380;9.820;2023-01-08T11:39:27;2.20;;;1.27;;
31786;SDS011;18356;52.380;9.820;2023-01-08T11:47:13;10.83;;;5.23;;
31786;SDS011;18356;52.380;9.820;2023-01-08T12:00:29;2.27;;;1.03;;
31786;SDS011;18356;52.380;9.820;2023-01-08T12:02:57;2.60;;;1.20;;
31786;SDS011;18356;52.380;9.820;2023-01-08T12:10:43;5.30;;;0.80;;
31786;SDS011;18356;52.380;9.820;2023-01-08T12:21:28;1.52;;;0.60;;
31786;SDS011;18356;52.380;9.820;2023-01-08T12:26:57;2.00;;;0.90;;
31786;SDS011;18356;52.380;9.820;2023-01-08T12:29:16;3.72;;;0.73;;
31786;SDS011;18356;52.380;9.820;2023-01-08T12:34:33;3.53;;;0.85;;
31786;SDS011;18356;52.380;9.820;2023-01-08T12:36:58;3.00;;;0.80;;
31786;SDS011;18356;52.380;9.820;2023-01-08T12:39:28;2.37;;;0.80;;
31786;SDS011;18356;52.380;9.820;2023-01-08T12:41:58;4.73;;;2.70;;
31786;SDS011;18356;52.380;9.820;2023-01-08T12:44:30;5.07;;;1.00;;
31786;SDS011;18356;52.380;9.820;2023-01-08T12:46:58;2.65;;;0.70;;
31786;SDS011;18356;52.380;9.820;2023-01-08T12:49:32;4.13;;;0.77;;
31786;SDS011;18356;52.380;9.820;2023-01-08T12:52:15;2.40;;;0.70;;
31786;SDS011;18356;52.380;9.820;2023-01-08T12:54:50;4.07;;;0.90;;
31786;SDS011;18356;52.380;9.820;2023-01-08T12:57:30;4.70;;;1.00;;
31786;SDS011;18356;52.380;9.820;2023-01-08T13:05:09;2.33;;;1.00;;
31786;SDS011;18356;52.380;9.820;2023-01-08T13:07:37;3.28;;;0.80;;
31786;SDS011;18356;52.380;9.820;2023-01-08T13:10:07;4.90;;;1.07;;
31786;SDS011;18356;52.380;9.820;2023-01-08T13:12:34;4.28;;;0.80;;
31786;SDS011;18356;52.380;9.820;2023-01-08T13:15:01;5.47;;;1.17;;
31786;SDS011;18356;52.380;9.820;2023-01-08T13:17:27;3.85;;;1.15;;
31786;SDS011;18356;52.380;9.820;2023-01-08T13:19:54;4.60;;;1.00;;
31786;SDS011;18356;52.380;9.820;2023-01-08T13:24:47;5.43;;;1.13;;
31786;SDS011;18356;52.380;9.820;2023-01-08T13:29:42;6.00;;;1.30;;
31786;SDS011;18356;52.380;9.820;2023-01-08T13:37:35;6.55;;;1.60;;
31786;SDS011;18356;52.380;9.820;2023-01-08T13:40:02;6.03;;;1.27;;
31786;SDS011;18356;52.380;9.820;2023-01-08T13:42:31;5.33;;;1.13;;
31786;SDS011;18356;52.380;9.820;2023-01-08T13:45:02;5.82;;;1.10;;
31786;SDS011;18356;52.380;9.820;2023-01-08T13:47:30;5.43;;;1.47;;
31786;SDS011;18356;52.380;9.820;2023-01-08T13:49:58;7.10;;;1.20;;
31786;SDS011;18356;52.380;9.820;2023-01-08T13:52:43;3.13;;;1.00;;
31786;SDS011;18356;52.380;9.820;2023-01-08T13:55:14;8.60;;;1.40;;
31786;SDS011;18356;52.380;9.820;2023-01-08T13:57:42;9.03;;;1.40;;
31786;SDS011;18356;52.380;9.820;2023-01-08T14:00:13;5.88;;;1.23;;
31786;SDS011;18356;52.380;9.820;2023-01-08T14:02:43;5.97;;;1.40;;
31786;SDS011;18356;52.380;9.820;2023-01-08T14:07:46;6.23;;;1.40;;
31786;SDS011;18356;52.380;9.820;2023-01-08T14:10:13;3.97;;;1.00;;
31786;SDS011;18356;52.380;9.820;2023-01-08T14:12:40;5.70;;;1.30;;
31786;SDS011;18356;52.380;9.820;2023-01-08T14:15:08;5.30;;;1.40;;
31786;SDS011;18356;52.380;9.820;2023-01-08T14:17:35;4.13;;;1.07;;
31786;SDS011;18356;52.380;9.820;2023-01-08T14:20:01;5.60;;;1.33;;
31786;SDS011;18356;52.380;9.820;2023-01-08T14:22:34;4.43;;;1.00;;
31786;SDS011;18356;52.380;9.820;2023-01-08T14:25:02;3.00;;;0.80;;
31786;SDS011;18356;52.380;9.820;2023-01-08T14:27:30;4.70;;;1.00;;
31786;SDS011;18356;52.380;9.820;2023-01-08T14:29:57;4.17;;;1.00;;
31786;SDS011;18356;52.380;9.820;2023-01-08T14:32:24;2.43;;;1.10;;
31786;SDS011;18356;52.380;9.820;2023-01-08T14:34:51;2.87;;;1.10;;
31786;SDS011;18356;52.380;9.820;2023-01-08T14:37:18;3.33;;;1.10;;
31786;SDS011;18356;52.380;9.820;2023-01-08T14:39:45;2.10;;;0.70;;
31786;SDS011;18356;52.380;9.820;2023-01-08T14:42:21;1.73;;;0.80;;
31786;SDS011;18356;52.380;9.820;2023-01-08T14:47:41;1.70;;;0.90;;
31786;SDS011;18356;52.380;9.820;2023-01-08T14:50:19;2.83;;;1.13;;
31786;SDS011;18356;52.380;9.820;2023-01-08T14:52:48;3.53;;;1.00;;
31786;SDS011;18356;52.380;9.820;2023-01-08T14:55:15;2.50;;;0.90;;
31786;SDS011;18356;52.380;9.820;2023-01-08T14:57:45;2.20;;;1.00;;
31786;SDS011;18356;52.380;9.820;2023-01-08T15:00:18;2.23;;;1.00;;
31786;SDS011;18356;52.380;9.820;2023-01-08T15:02:46;3.23;;;1.10;;
31786;SDS011;18356;52.380;9.820;2023-01-08T15:05:19;3.70;;;1.27;;
31786;SDS011;18356;52.380;9.820;2023-01-08T15:07:54;2.93;;;1.10;;
31786;SDS011;18356;52.380;9.820;2023-01-08T15:10:29;3.77;;;1.10;;
31786;SDS011;18356;52.380;9.820;2023-01-08T15:12:56;3.20;;;1.10;;
31786;SDS011;18356;52.380;9.820;2023-01-08T15:15:24;3.60;;;1.20;;
31786;SDS011;18356;52.380;9.820;2023-01-08T15:17:50;3.53;;;1.30;;
31786;SDS011;18356;52.380;9.820;2023-01-08T15:20:17;4.73;;;1.30;;
31786;SDS011;18356;52.380;9.820;2023-01-08T15:22:43;5.57;;;1.40;;
31786;SDS011;18356;52.380;9.820;2023-01-08T15:25:14;2.83;;;1.30;;
31786;SDS011;18356;52.380;9.820;2023-01-08T15:27:41;2.63;;;1.27;;
31786;SDS011;18356;52.380;9.820;2023-01-08T15:35:41;3.70;;;1.40;;
31786;SDS011;18356;52.380;9.820;2023-01-08T15:38:07;3.70;;;1.40;;
31786;SDS011;18356;52.380;9.820;2023-01-08T15:40:33;3.00;;;1.47;;
31786;SDS011;18356;52.380;9.820;2023-01-08T15:42:59;2.23;;;1.20;;
31786;SDS011;18356;52.380;9.820;2023-01-08T15:45:35;3.70;;;1.57;;
31786;SDS011;18356;52.380;9.820;2023-01-08T15:48:01;4.40;;;1.73;;
31786;SDS011;18356;52.380;9.820;2023-01-08T15:50:27;3.80;;;1.70;;
31786;SDS011;18356;52.380;9.820;2023-01-08T15:52:56;3.70;;;1.43;;
31786;SDS011;18356;52.380;9.820;2023-01-08T15:55:24;5.00;;;1.90;;
31786;SDS011;18356;52.380;9.820;2023-01-08T15:57:51;3.00;;;1.60;;
31786;SDS011;18356;52.380;9.820;2023-01-08T16:00:17;3.97;;;1.50;;
31786;SDS011;18356;52.380;9.820;2023-01-08T16:02:45;3.53;;;1.60;;
31786;SDS011;18356;52.380;9.820;2023-01-08T16:05:11;3.53;;;1.50;;
31786;SDS011;18356;52.380;9.820;2023-01-08T16:07:39;4.03;;;1.50;;
31786;SDS011;18356;52.380;9.820;2023-01-08T16:10:05;2.20;;;1.37;;
31786;SDS011;18356;52.380;9.820;2023-01-08T16:12:31;3.93;;;1.50;;
31786;SDS011;18356;52.380;9.820;2023-01-08T16:14:58;2.70;;;1.50;;
31786;SDS011;18356;52.380;9.820;2023-01-08T16:17:24;3.43;;;1.67;;
31786;SDS011;18356;52.380;9.820;2023-01-08T16:19:50;2.60;;;1.60;;
31786;SDS011;18356;52.380;9.820;2023-01-08T16:22:16;4.00;;;1.57;;
31786;SDS011;18356;52.380;9.820;2023-01-08T16:24:42;2.50;;;1.60;;
31786;SDS011;18356;52.380;9.820;2023-01-08T16:27:08;4.73;;;1.63;;